Time;durP1;ratioP1;P1;durP2;ratioP2;P2;SDS_P1;SDS_P2;PMS_P1;PMS_P2;Temp;Humidity;BMP_temperature;BMP_pressure;BME280_temperature;BME280_humidity;BME280_pressure;Samples;Min_cycle;Max_cycle;Signal;HPM_P1;HPM_P2
2022/06/17 00:00:50;;;;;;;458.60;251.00;;;11.80;1.00;;;;;;4982016;28;20208;-92
2022/06/17 00:03:18;;;;;;;461.07;252.20;;;11.80;99.90;;;;;;4974718;28;20202;-93
2022/06/17 00:05:46;;;;;;;456.70;257.90;;;11.80;1.00;;;;;;4989907;28;20287;-92
2022/06/17 00:08:17;;;;;;;565.93;264.73;;;11.80;1.00;;;;;;4990836;28;20619;-92
2022/06/17 00:10:45;;;;;;;568.00;262.07;;;11.80;1.00;;;;;;4972145;28;20310;-92
2022/06/17 00:13:14;;;;;;;565.37;264.73;;;11.80;1.00;;;;;;4993621;28;20204;-93
2022/06/17 00:15:45;;;;;;;581.07;265.53;;;11.90;1.00;;;;;;4981256;28;20259;-92
2022/06/17 00:18:13;;;;;;;530.70;251.90;;;11.80;1.00;;;;;;4987883;28;20200;-92
2022/06/17 00:20:42;;;;;;;562.60;258.23;;;11.80;1.00;;;;;;4971463;28;20203;-92
2022/06/17 00:23:11;;;;;;;544.60;262.70;;;11.90;1.00;;;;;;4994973;28;20229;-93
2022/06/17 00:25:40;;;;;;;580.40;255.33;;;11.90;1.00;;;;;;4989155;28;20199;-92
2022/06/17 00:28:11;;;;;;;558.40;257.30;;;11.90;1.00;;;;;;4998977;28;20191;-93
2022/06/17 00:30:39;;;;;;;581.43;263.13;;;12.00;1.00;;;;;;4972148;28;20644;-93
2022/06/17 00:33:09;;;;;;;574.17;263.83;;;12.00;1.00;;;;;;4989603;28;20199;-92
2022/06/17 00:35:39;;;;;;;598.10;270.60;;;12.10;1.00;;;;;;4986206;28;20651;-92
2022/06/17 00:38:10;;;;;;;599.23;258.67;;;12.20;1.00;;;;;;4998451;28;20307;-92
2022/06/17 00:40:38;;;;;;;583.50;273.47;;;12.20;1.00;;;;;;4959979;28;20208;-92
2022/06/17 00:43:08;;;;;;;628.80;270.67;;;12.20;1.00;;;;;;4983804;28;20207;-92
2022/06/17 00:45:40;;;;;;;624.43;262.70;;;12.20;1.00;;;;;;4998777;28;20200;-92
2022/06/17 00:48:13;;;;;;;609.43;268.37;;;12.30;1.00;;;;;;4987732;28;20208;-93
2022/06/17 00:50:47;;;;;;;598.80;275.03;;;12.20;1.00;;;;;;4972033;28;20749;-92
2022/06/17 00:53:19;;;;;;;657.27;264.53;;;12.20;1.00;;;;;;4971902;28;20573;-92
2022/06/17 00:55:52;;;;;;;623.67;258.83;;;12.20;1.00;;;;;;4985347;28;20202;-92
2022/06/17 00:58:22;;;;;;;569.03;262.80;;;12.10;1.00;;;;;;4989767;28;20209;-92
2022/06/17 01:00:54;;;;;;;579.50;272.30;;;12.10;1.00;;;;;;4978665;28;20201;-93
2022/06/17 01:03:26;;;;;;;489.23;266.00;;;12.00;1.00;;;;;;4999474;28;20203;-93
2022/06/17 01:06:01;;;;;;;610.77;265.97;;;12.00;1.00;;;;;;4996988;28;20262;-91
2022/06/17 01:11:18;;;;;;;642.40;262.83;;;12.00;1.00;;;;;;4986141;28;20215;-92
2022/06/17 01:13:49;;;;;;;604.23;256.67;;;11.90;1.00;;;;;;4992563;28;20204;-93
2022/06/17 01:16:18;;;;;;;582.40;260.73;;;11.90;1.00;;;;;;4982227;28;20231;-92
2022/06/17 01:18:48;;;;;;;578.73;264.73;;;11.80;1.00;;;;;;5002254;28;20206;-92
2022/06/17 01:21:24;;;;;;;571.37;263.33;;;11.80;1.00;;;;;;4986797;28;20251;-92
2022/06/17 01:23:54;;;;;;;600.70;267.00;;;11.80;1.00;;;;;;4984017;28;20639;-92
2022/06/17 01:26:22;;;;;;;268.63;241.13;;;11.70;1.00;;;;;;4981072;28;20211;-92
2022/06/17 01:28:50;;;;;;;283.30;251.57;;;11.70;1.00;;;;;;4999844;28;20218;-93
2022/06/17 01:31:18;;;;;;;593.43;256.13;;;11.70;1.00;;;;;;4998694;28;20217;-92
2022/06/17 01:33:47;;;;;;;583.90;265.67;;;11.70;1.00;;;;;;4969312;28;20203;-93
2022/06/17 01:36:19;;;;;;;622.57;249.97;;;11.70;1.00;;;;;;4991062;28;20221;-93
2022/06/17 01:38:51;;;;;;;619.13;254.60;;;11.60;1.00;;;;;;4999108;28;20291;-92
2022/06/17 01:41:25;;;;;;;588.23;258.37;;;11.60;1.00;;;;;;4998103;28;20203;-93
2022/06/17 01:43:55;;;;;;;602.80;247.73;;;11.60;38.00;;;;;;4982069;28;20204;-93
2022/06/17 01:46:27;;;;;;;611.43;250.90;;;11.60;1.00;;;;;;4998830;28;20211;-92
2022/06/17 01:48:59;;;;;;;578.57;250.10;;;11.60;1.00;;;;;;4996632;28;20206;-94
2022/06/17 01:51:32;;;;;;;584.33;254.90;;;11.60;50.40;;;;;;4986559;28;20315;-93
2022/06/17 01:54:02;;;;;;;588.93;253.00;;;11.60;99.90;;;;;;4995550;28;20212;-93
2022/06/17 01:56:36;;;;;;;619.10;264.03;;;11.60;99.90;;;;;;4985159;28;20237;-93
2022/06/17 01:59:12;;;;;;;540.07;257.00;;;11.60;99.90;;;;;;4985807;28;20225;-93
2022/06/17 02:01:44;;;;;;;585.67;259.53;;;11.60;99.90;;;;;;4963851;28;20199;-92
2022/06/17 02:04:19;;;;;;;523.23;258.30;;;11.60;99.90;;;;;;4992221;28;20203;-93
2022/06/17 02:06:53;;;;;;;592.23;249.13;;;11.60;99.90;;;;;;4989993;28;20258;-92
2022/06/17 02:09:23;;;;;;;619.40;249.93;;;11.60;99.90;;;;;;4976709;28;20238;-93
2022/06/17 02:11:54;;;;;;;589.73;251.87;;;11.60;99.90;;;;;;4997221;28;20228;-93
2022/06/17 02:14:24;;;;;;;539.40;257.83;;;11.60;99.90;;;;;;4996025;28;20290;-93
2022/06/17 02:16:54;;;;;;;598.73;252.97;;;11.60;99.90;;;;;;4997646;28;20278;-93
2022/06/17 02:19:26;;;;;;;598.83;259.23;;;11.60;99.90;;;;;;4997606;28;20230;-93
2022/06/17 02:22:01;;;;;;;576.60;258.67;;;11.60;1.00;;;;;;4985416;28;20200;-94
2022/06/17 02:24:30;;;;;;;540.80;252.30;;;11.60;1.00;;;;;;4972732;28;20216;-93
2022/06/17 02:27:03;;;;;;;662.83;252.90;;;11.60;1.00;;;;;;4987740;28;20221;-94
2022/06/17 02:29:34;;;;;;;636.23;249.13;;;11.60;1.00;;;;;;5001658;28;20213;-93
2022/06/17 02:32:04;;;;;;;606.00;255.73;;;11.60;1.00;;;;;;4968581;28;20253;-94
2022/06/17 02:34:33;;;;;;;620.80;258.17;;;11.50;1.00;;;;;;4968114;28;20208;-93
2022/06/17 02:37:08;;;;;;;515.43;252.87;;;11.60;1.00;;;;;;4994220;28;20544;-93
2022/06/17 02:39:40;;;;;;;492.40;246.43;;;11.60;1.00;;;;;;4999309;28;20210;-93
2022/06/17 02:42:20;;;;;;;295.67;236.33;;;11.60;1.00;;;;;;5139966;22;20247;-94
2022/06/17 02:44:51;;;;;;;255.07;224.77;;;11.60;1.00;;;;;;4959361;29;20206;-92
2022/06/17 02:47:19;;;;;;;247.57;221.93;;;11.60;1.00;;;;;;4951823;29;20231;-91
2022/06/17 02:49:48;;;;;;;546.80;255.20;;;11.60;1.00;;;;;;4948501;29;20202;-91
2022/06/17 02:52:18;;;;;;;562.63;255.70;;;11.60;1.00;;;;;;4955927;28;20255;-93
2022/06/17 02:54:53;;;;;;;618.43;255.40;;;11.60;1.00;;;;;;4950322;29;20212;-93
2022/06/17 02:57:25;;;;;;;638.97;247.03;;;11.60;1.00;;;;;;4954425;29;20220;-91
2022/06/17 02:59:59;;;;;;;594.27;251.60;;;11.60;1.00;;;;;;4946324;29;20201;-92
2022/06/17 03:02:31;;;;;;;598.80;257.40;;;11.60;1.00;;;;;;4959768;29;20549;-93
2022/06/17 03:05:00;;;;;;;611.53;256.00;;;11.60;1.00;;;;;;4953055;29;20208;-92
2022/06/17 03:07:32;;;;;;;613.63;248.83;;;11.60;1.40;;;;;;4954209;29;20205;-92
2022/06/17 03:10:00;;;;;;;593.27;247.30;;;11.60;61.50;;;;;;4953362;29;20667;-94
2022/06/17 03:12:57;;;;;;;591.87;250.77;;;11.70;99.90;;;;;;4953265;29;20228;-96
2022/06/17 03:15:26;;;;;;;628.23;241.47;;;11.70;1.00;;;;;;4945845;29;20208;-94
2022/06/17 03:17:54;;;;;;;643.70;231.80;;;11.70;99.90;;;;;;4954065;29;20231;-93
2022/06/17 03:20:25;;;;;;;630.43;246.30;;;11.80;99.90;;;;;;4950746;29;20281;-93
2022/06/17 03:23:01;;;;;;;619.80;253.37;;;11.70;99.90;;;;;;4949837;28;20288;-94
2022/06/17 03:25:37;;;;;;;637.07;248.90;;;11.90;99.90;;;;;;4950994;28;20199;-94
2022/06/17 03:28:11;;;;;;;449.80;244.10;;;11.90;99.90;;;;;;4970079;28;20655;-92
2022/06/17 03:30:42;;;;;;;660.97;241.77;;;11.90;99.90;;;;;;4947300;29;20224;-93
2022/06/17 03:33:17;;;;;;;663.53;257.67;;;12.00;1.00;;;;;;4960706;29;20209;-92
2022/06/17 03:35:48;;;;;;;584.50;261.23;;;12.00;1.00;;;;;;4947398;29;20201;-92
2022/06/17 03:38:28;;;;;;;612.33;251.00;;;12.10;1.00;;;;;;4959059;29;20222;-93
2022/06/17 03:41:01;;;;;;;637.17;254.43;;;12.20;1.00;;;;;;4940248;29;20209;-93
2022/06/17 03:43:38;;;;;;;686.20;254.30;;;12.40;99.90;;;;;;4941316;29;20303;-93
2022/06/17 03:46:08;;;;;;;665.07;259.60;;;13.00;99.90;;;;;;4962416;29;20212;-93
2022/06/17 03:48:38;;;;;;;;;;;14.10;99.90;;;;;;4962565;29;20204;-92
2022/06/17 03:51:06;;;;;;;696.83;311.83;;;15.30;99.90;;;;;;4961033;29;20058;-91
2022/06/17 03:53:36;;;;;;;706.13;325.93;;;16.40;1.00;;;;;;4960373;29;20553;-91
2022/06/17 03:56:05;;;;;;;;;;;17.50;99.90;;;;;;4959092;28;20208;-92
2022/06/17 03:58:37;;;;;;;722.33;375.37;;;18.40;1.00;;;;;;4946213;29;20066;-92
2022/06/17 04:01:15;;;;;;;727.47;396.10;;;19.00;1.00;;;;;;4959461;29;20238;-93
2022/06/17 04:03:47;;;;;;;730.53;420.23;;;19.60;1.00;;;;;;4951993;29;20204;-92
2022/06/17 04:06:16;;;;;;;;;;;19.90;1.00;;;;;;4958036;29;20230;-91
2022/06/17 04:08:54;;;;;;;;;;;20.30;1.00;;;;;;4956542;29;19927;-92
2022/06/17 04:11:28;;;;;;;;;;;20.50;99.90;;;;;;4960256;29;20452;-92
2022/06/17 04:13:59;;;;;;;;;;;20.50;1.00;;;;;;4961409;29;19933;-92
2022/06/17 04:16:31;;;;;;;;;;;20.30;1.00;;;;;;4960459;29;19927;-91
2022/06/17 04:19:03;;;;;;;;;;;20.20;1.00;;;;;;4960469;29;19927;-92
2022/06/17 04:21:30;;;;;;;;;;;20.10;1.00;;;;;;4960596;29;19926;-94
2022/06/17 04:23:58;;;;;;;;;;;20.20;1.00;;;;;;4943398;29;19927;-92
2022/06/17 04:26:31;;;;;;;753.42;528.28;;;20.50;1.00;;;;;;4958186;28;20050;-93
2022/06/17 04:29:04;;;;;;;752.70;528.80;;;21.20;1.00;;;;;;4961631;29;20196;-92
2022/06/17 04:31:33;;;;;;;;;;;22.40;1.00;;;;;;4960480;29;20246;-92
2022/06/17 04:34:05;;;;;;;752.33;556.25;;;23.20;1.00;;;;;;4959297;29;20504;-93
2022/06/17 04:36:45;;;;;;;755.58;576.20;;;23.70;1.00;;;;;;4960611;29;20570;-93
2022/06/17 04:39:18;;;;;;;;;;;24.10;99.90;;;;;;4962470;29;20207;-93
2022/06/17 04:41:46;;;;;;;;;;;24.60;99.90;;;;;;4962632;29;19930;-93
2022/06/17 04:44:15;;;;;;;;;;;25.00;99.90;;;;;;4960674;29;20054;-93
2022/06/17 04:46:45;;;;;;;;;;;25.90;99.90;;;;;;4947698;29;19922;-94
2022/06/17 04:49:18;;;;;;;773.00;686.10;;;27.00;99.90;;;;;;4945147;29;20053;-92
2022/06/17 04:51:46;;;;;;;;;;;27.80;99.90;;;;;;4958361;29;20082;-94
2022/06/17 04:54:14;;;;;;;834.30;746.33;;;28.50;99.90;;;;;;4955764;29;19926;-92
2022/06/17 04:56:42;;;;;;;;;;;29.10;93.10;;;;;;4946848;28;20066;-94
2022/06/17 04:59:31;;;;;;;890.40;799.42;;;29.80;90.50;;;;;;4957354;29;20576;-92
2022/06/17 05:02:00;;;;;;;889.00;796.55;;;30.60;14.50;;;;;;4962228;29;20264;-92
2022/06/17 05:04:28;;;;;;;907.35;815.15;;;31.00;15.00;;;;;;5032139;23;20236;-91
2022/06/17 05:06:55;;;;;;;939.17;845.08;;;31.30;1.00;;;;;;4979501;28;20208;-91
2022/06/17 05:18:57;;;;;;;;;;;;;;;;;;;;;
2022/06/17 05:25:01;;;;;;;987.92;891.00;;;30.40;1.00;;;;;;5006358;23;20231;-93
2022/06/17 05:27:29;;;;;;;986.65;892.47;;;30.70;1.00;;;;;;4990025;28;20257;-93
2022/06/17 05:29:57;;;;;;;978.45;884.20;;;30.70;1.00;;;;;;4981536;28;20207;-93
2022/06/17 05:35:19;;;;;;;957.53;866.60;;;30.20;1.00;;;;;;4988998;28;20196;-95
2022/06/17 05:37:47;;;;;;;;;;;29.60;1.00;;;;;;5000953;28;20089;-95
2022/06/17 05:40:14;;;;;;;;;;;29.10;1.00;;;;;;4986721;28;19956;-94
2022/06/17 05:42:44;;;;;;;918.70;829.10;;;28.50;1.00;;;;;;4997652;28;20177;-94
2022/06/17 05:45:32;;;;;;;910.15;821.15;;;28.20;1.00;;;;;;4984299;28;20203;-94
2022/06/17 05:48:00;;;;;;;889.67;801.10;;;27.90;1.00;;;;;;5012612;23;20221;-95
2022/06/17 05:50:31;;;;;;;871.83;783.90;;;28.10;1.00;;;;;;4967829;28;20239;-94
2022/06/17 05:53:20;;;;;;;919.25;828.85;;;28.50;1.00;;;;;;5125217;23;20272;31
2022/06/17 05:55:50;;;;;;;923.17;832.80;;;29.20;1.00;;;;;;4884659;29;20244;-93
2022/06/17 05:58:18;;;;;;;924.92;834.20;;;29.70;1.00;;;;;;4883500;29;20633;-91
2022/06/17 06:00:46;;;;;;;902.20;813.25;;;29.60;1.00;;;;;;4881487;29;20206;-95
2022/06/17 06:03:19;;;;;;;927.22;836.65;;;29.20;1.00;;;;;;4882752;29;20298;-89
2022/06/17 06:05:49;;;;;;;925.05;834.72;;;28.80;1.00;;;;;;4885920;29;20286;-91
2022/06/17 06:08:17;;;;;;;919.15;829.22;;;28.40;1.00;;;;;;4899571;29;20201;-91
2022/06/17 06:10:45;;;;;;;914.10;824.10;;;27.80;1.00;;;;;;4886080;29;20689;-91
2022/06/17 06:13:17;;;;;;;903.25;814.15;;;27.60;1.00;;;;;;4892944;29;20233;-91
2022/06/17 06:15:46;;;;;;;904.63;815.50;;;27.90;1.00;;;;;;4881531;29;20206;-91
2022/06/17 06:18:18;;;;;;;918.17;828.22;;;28.90;1.00;;;;;;4888947;29;20200;-92
2022/06/17 06:20:46;;;;;;;;;;;30.20;1.00;;;;;;4895393;29;20606;-94
2022/06/17 06:23:15;;;;;;;988.60;895.88;;;31.60;1.00;;;;;;4895502;29;20655;-91
2022/06/17 06:25:42;;;;;;;1002.50;909.00;;;32.50;1.00;;;;;;4895371;29;20211;-90
2022/06/17 06:28:11;;;;;;;1014.80;920.78;;;33.30;1.00;;;;;;4883307;29;20684;-92
2022/06/17 06:30:39;;;;;;;;;;;34.10;1.00;;;;;;4894772;29;20163;-94
2022/06/17 06:33:06;;;;;;;;;;;34.70;1.00;;;;;;4894917;29;19954;-90
2022/06/17 06:35:35;;;;;;;;;;;35.40;1.00;;;;;;4894307;29;20581;-93
2022/06/17 06:38:03;;;;;;;1079.05;984.30;;;36.00;1.00;;;;;;4890783;29;20066;-93
2022/06/17 06:40:32;;;;;;;1069.88;975.72;;;36.40;1.00;;;;;;4884960;29;20130;-93
2022/06/17 06:43:01;;;;;;;1040.63;949.25;;;36.80;1.00;;;;;;4885911;29;20218;-93
2022/06/17 06:45:30;;;;;;;1050.68;958.97;;;37.30;1.00;;;;;;4884950;29;20232;-91
2022/06/17 06:48:11;;;;;;;;;;;;;;;;;;;;;
2022/06/17 06:50:42;;;;;;;1018.30;929.00;;;38.20;1.00;;;;;;4884141;29;20221;-91
2022/06/17 06:53:09;;;;;;;1015.72;927.10;;;38.60;1.00;;;;;;4896286;29;20194;-90
2022/06/17 06:55:38;;;;;;;1015.25;927.13;;;38.60;1.00;;;;;;4895730;29;20655;-90
2022/06/17 06:58:10;;;;;;;1008.70;921.38;;;38.70;1.00;;;;;;4890728;29;20233;-88
2022/06/17 07:00:40;;;;;;;1030.65;941.85;;;38.80;1.00;;;;;;4885228;29;20270;-91
2022/06/17 07:03:07;;;;;;;1106.25;999.70;;;39.30;1.00;;;;;;4885009;29;20305;-91
2022/06/17 07:05:37;;;;;;;1103.10;999.22;;;39.70;1.00;;;;;;4885810;29;20211;-87
2022/06/17 07:08:04;;;;;;;1101.47;999.45;;;39.70;1.00;;;;;;4884939;29;20203;-92
2022/06/17 07:10:34;;;;;;;1101.03;999.58;;;39.50;1.00;;;;;;4885176;29;20206;-89
2022/06/17 07:13:03;;;;;;;1108.75;999.90;;;39.70;1.00;;;;;;4885426;29;20207;-91
2022/06/17 07:15:30;;;;;;;1113.85;999.90;;;39.60;1.00;;;;;;4889530;29;20210;-91
2022/06/17 07:18:00;;;;;;;1100.28;999.72;;;39.80;1.00;;;;;;4887365;29;20199;-89
2022/06/17 07:20:29;;;;;;;1043.00;954.08;;;40.10;1.00;;;;;;4886091;29;20202;-90
2022/06/17 07:22:56;;;;;;;1015.38;928.65;;;40.20;1.00;;;;;;4885466;29;20235;-91
2022/06/17 07:25:23;;;;;;;1008.20;921.63;;;40.20;1.00;;;;;;4895496;29;20261;-91
2022/06/17 07:27:50;;;;;;;1019.10;931.85;;;40.40;1.00;;;;;;4891519;29;20210;-91
2022/06/17 07:30:22;;;;;;;1046.32;957.78;;;40.60;1.00;;;;;;4889970;29;20326;-90
2022/06/17 07:32:49;;;;;;;1013.95;927.15;;;40.80;1.00;;;;;;4880842;29;20653;-88
2022/06/17 07:35:17;;;;;;;987.95;902.22;;;40.80;1.00;;;;;;4896024;29;20281;-89
2022/06/17 07:40:30;;;;;;;969.63;883.70;;;40.40;1.00;;;;;;4897082;29;20208;-91
2022/06/17 07:42:58;;;;;;;932.38;848.97;;;40.40;1.00;;;;;;4894758;29;20233;-92
2022/06/17 07:45:28;;;;;;;920.55;837.92;;;40.20;1.00;;;;;;4894872;29;20212;-91
2022/06/17 07:47:56;;;;;;;951.42;866.83;;;40.30;1.00;;;;;;4891185;29;20218;-90
2022/06/17 07:50:27;;;;;;;972.53;887.20;;;40.30;1.00;;;;;;4877046;29;20241;-89
2022/06/17 07:52:54;;;;;;;960.22;875.20;;;40.30;1.00;;;;;;4898762;29;20212;-91
2022/06/17 07:55:22;;;;;;;966.80;881.20;;;40.20;1.00;;;;;;4896056;29;20226;-90
2022/06/17 07:57:50;;;;;;;981.42;894.75;;;39.90;1.00;;;;;;4896790;29;20206;-93
2022/06/17 08:00:22;;;;;;;1051.88;962.03;;;39.70;1.00;;;;;;4883062;29;20222;-90
2022/06/17 08:02:51;;;;;;;1051.97;961.70;;;39.60;1.00;;;;;;4887479;29;20230;-89
2022/06/17 08:05:19;;;;;;;1050.60;960.55;;;39.60;1.00;;;;;;4887085;29;20217;-89
2022/06/17 08:07:46;;;;;;;1056.82;967.15;;;39.50;1.00;;;;;;4890664;29;20205;-88
2022/06/17 08:13:16;;;;;;;1050.63;961.45;;;39.00;1.00;;;;;;4897472;29;20213;-92
2022/06/17 08:15:43;;;;;;;1026.88;938.97;;;38.90;1.00;;;;;;4896147;29;20296;-92
2022/06/17 08:18:12;;;;;;;1014.47;927.50;;;38.60;1.00;;;;;;4899655;29;20591;-90
2022/06/17 08:20:39;;;;;;;1003.08;916.67;;;38.50;1.00;;;;;;4891078;29;20222;-92
2022/06/17 08:23:08;;;;;;;996.08;909.92;;;38.50;1.00;;;;;;4904337;29;20229;-91
2022/06/17 08:25:36;;;;;;;992.92;907.00;;;38.40;1.00;;;;;;4899821;29;20658;-91
2022/06/17 08:28:07;;;;;;;977.30;891.67;;;38.30;1.00;;;;;;4904167;29;20265;-88
2022/06/17 08:30:37;;;;;;;950.75;865.92;;;38.40;1.00;;;;;;4890823;29;20202;-90
2022/06/17 08:33:05;;;;;;;1000.60;913.95;;;38.40;1.00;;;;;;4896515;29;20568;-88
2022/06/17 08:35:34;;;;;;;;;;;37.90;1.00;;;;;;4901899;29;20066;-89
2022/06/17 08:38:04;;;;;;;1028.47;939.42;;;37.20;1.00;;;;;;4894383;29;20192;-89
2022/06/17 08:40:40;;;;;;;1062.25;971.83;;;37.10;1.00;;;;;;4892563;29;20689;-89
2022/06/17 08:43:41;;;;;;;1062.20;971.42;;;37.10;1.00;;;;;;4883086;29;20233;-89
2022/06/17 08:46:14;;;;;;;1046.90;957.35;;;37.30;1.00;;;;;;4883889;29;20221;-90
2022/06/17 08:49:05;;;;;;;1039.78;950.83;;;37.30;1.00;;;;;;4881247;29;20650;-88
2022/06/17 08:51:53;;;;;;;1069.63;979.13;;;37.30;1.00;;;;;;4882169;29;20630;-87
2022/06/17 08:54:34;;;;;;;1072.53;981.60;;;37.60;1.00;;;;;;4882915;29;20252;-89
2022/06/17 08:57:15;;;;;;;1046.82;957.75;;;37.70;1.00;;;;;;4870343;29;20287;-93
2022/06/17 09:00:05;;;;;;;1075.43;984.58;;;37.80;1.00;;;;;;4880437;29;20199;-90
2022/06/17 09:02:45;;;;;;;1077.15;986.25;;;37.70;1.00;;;;;;4882484;29;20283;-91
2022/06/17 09:05:29;;;;;;;1106.05;999.90;;;37.60;1.00;;;;;;4883591;29;20609;-89
2022/06/17 09:08:19;;;;;;;1056.40;967.22;;;37.80;1.00;;;;;;4880214;29;20268;-90
2022/06/17 09:11:04;;;;;;;1081.63;990.20;;;37.80;1.00;;;;;;4883445;29;20207;-91
2022/06/17 09:13:45;;;;;;;1083.50;992.03;;;38.10;1.00;;;;;;4880972;29;20203;-91
2022/06/17 09:16:21;;;;;;;1100.85;999.67;;;38.20;1.00;;;;;;4881330;29;20198;-88
2022/06/17 09:18:53;;;;;;;1103.82;999.90;;;38.10;1.00;;;;;;4880868;29;20202;-88
2022/06/17 09:21:22;;;;;;;;;;;37.80;1.00;;;;;;4881801;29;20066;-88
2022/06/17 09:23:52;;;;;;;1080.50;988.08;;;36.60;1.00;;;;;;4880414;29;20207;-88
2022/06/17 09:26:24;;;;;;;1093.80;996.83;;;35.70;1.00;;;;;;4880262;29;20262;-88
2022/06/17 09:28:57;;;;;;;1095.88;997.60;;;35.30;1.00;;;;;;4880808;29;20202;-89
2022/06/17 09:31:30;;;;;;;1087.55;993.35;;;35.20;1.00;;;;;;4880431;29;20183;-88
2022/06/17 09:34:05;;;;;;;1072.10;978.58;;;34.90;1.00;;;;;;4881945;29;20180;-91
2022/06/17 09:36:37;;;;;;;1059.05;965.95;;;34.50;1.00;;;;;;4880994;29;20233;-90
2022/06/17 09:39:08;;;;;;;;;;;34.20;1.00;;;;;;4883616;29;20072;-89
2022/06/17 09:41:38;;;;;;;;;;;33.30;1.00;;;;;;4882077;29;19924;-89
2022/06/17 09:44:10;;;;;;;957.03;870.83;;;32.70;1.00;;;;;;4881478;29;20248;-88
2022/06/17 09:46:40;;;;;;;932.25;846.42;;;32.40;1.00;;;;;;4881993;29;20206;-89
2022/06/17 09:52:07;;;;;;;;;;;31.90;1.00;;;;;;4882646;29;20213;-90
2022/06/17 09:54:40;;;;;;;;;;;31.90;1.00;;;;;;4882141;29;20007;-88
2022/06/17 09:57:08;;;;;;;;;;;32.00;1.00;;;;;;4881597;29;20006;-89
2022/06/17 09:59:39;;;;;;;928.53;841.65;;;31.90;1.00;;;;;;4880612;29;20464;-90
2022/06/17 10:02:20;;;;;;;929.22;842.33;;;31.70;1.00;;;;;;4881614;29;20203;-92
2022/06/17 10:04:47;;;;;;;913.05;826.58;;;31.60;1.00;;;;;;4879838;29;20285;-90
2022/06/17 10:07:22;;;;;;;925.97;839.13;;;31.60;1.00;;;;;;4880555;29;20406;-90
2022/06/17 10:10:06;;;;;;;923.88;837.35;;;31.20;1.00;;;;;;4881056;29;20202;-88
2022/06/17 10:12:46;;;;;;;902.92;816.97;;;31.10;1.00;;;;;;4879999;29;20209;-89
2022/06/17 10:15:28;;;;;;;913.83;827.28;;;31.00;1.00;;;;;;4883795;29;20214;-92
2022/06/17 10:21:01;;;;;;;893.25;807.03;;;30.80;1.00;;;;;;4881053;29;20206;-90
2022/06/17 10:23:39;;;;;;;898.38;812.38;;;30.70;1.00;;;;;;4896394;29;20704;-87
2022/06/17 10:26:20;;;;;;;880.97;796.17;;;30.20;1.00;;;;;;4884207;29;20654;-89
2022/06/17 10:29:07;;;;;;;845.10;761.30;;;29.80;1.00;;;;;;4879652;29;20209;-90
2022/06/17 10:31:37;;;;;;;854.67;770.30;;;29.70;1.00;;;;;;4882551;29;20210;-88
2022/06/17 10:34:07;;;;;;;889.53;803.15;;;29.60;1.00;;;;;;4872831;29;20290;-89
2022/06/17 10:36:34;;;;;;;887.75;801.47;;;29.60;1.00;;;;;;4879874;29;20705;-88
2022/06/17 10:39:03;;;;;;;879.88;794.22;;;29.70;1.00;;;;;;4880129;29;20266;-89
2022/06/17 10:41:32;;;;;;;863.35;778.67;;;29.70;1.00;;;;;;4882486;29;20234;-89
2022/06/17 10:44:00;;;;;;;882.80;796.83;;;29.70;1.00;;;;;;4891002;29;20282;-88
2022/06/17 10:46:32;;;;;;;870.67;784.92;;;29.80;1.00;;;;;;4895943;29;20278;-90
2022/06/17 10:49:07;;;;;;;869.58;783.92;;;29.60;1.00;;;;;;4881313;29;20209;-90
2022/06/17 10:51:36;;;;;;;859.20;773.67;;;29.40;1.00;;;;;;4883897;29;20255;-89
2022/06/17 10:54:11;;;;;;;875.90;789.92;;;29.20;1.00;;;;;;4884125;29;20686;-88
2022/06/17 10:56:42;;;;;;;884.85;798.08;;;29.10;1.00;;;;;;4881135;29;20237;-88
2022/06/17 10:59:13;;;;;;;880.92;794.55;;;29.10;1.00;;;;;;4883681;29;20266;-88
2022/06/17 11:01:54;;;;;;;874.35;788.45;;;29.30;1.00;;;;;;4883127;29;20214;-88
2022/06/17 11:04:25;;;;;;;867.20;781.40;;;29.40;1.00;;;;;;4881887;29;20274;-90
2022/06/17 11:06:56;;;;;;;863.22;777.17;;;29.50;1.00;;;;;;4881742;29;20199;-89
2022/06/17 11:09:27;;;;;;;862.78;777.00;;;29.40;1.00;;;;;;4882303;29;20677;-88
2022/06/17 11:12:13;;;;;;;877.83;791.50;;;29.40;1.00;;;;;;4883492;29;20246;-88
2022/06/17 11:14:50;;;;;;;862.55;776.97;;;29.40;1.00;;;;;;4887512;29;20234;-90
2022/06/17 11:17:21;;;;;;;863.35;778.25;;;29.40;1.00;;;;;;4884636;29;20227;-90
2022/06/17 11:19:51;;;;;;;872.65;786.85;;;29.40;1.00;;;;;;4885077;29;20274;-90
2022/06/17 11:22:30;;;;;;;860.38;774.85;;;29.40;1.00;;;;;;4883061;29;20211;-93
2022/06/17 11:25:22;;;;;;;851.63;766.55;;;29.30;1.00;;;;;;4885083;29;20214;-89
2022/06/17 11:27:56;;;;;;;857.92;772.17;;;29.10;1.00;;;;;;4881587;29;20251;-91
2022/06/17 11:30:28;;;;;;;863.75;778.03;;;29.20;1.00;;;;;;4886505;29;20203;-90
2022/06/17 11:32:58;;;;;;;863.50;777.95;;;29.20;1.00;;;;;;4891479;29;20678;-91
2022/06/17 11:35:29;;;;;;;878.17;791.90;;;29.30;1.00;;;;;;4883811;29;20221;-92
2022/06/17 11:37:58;;;;;;;875.85;789.17;;;29.30;1.00;;;;;;4886515;29;20207;-89
2022/06/17 11:40:27;;;;;;;882.80;796.55;;;29.30;1.00;;;;;;4883203;29;20616;-90
2022/06/17 11:42:57;;;;;;;875.25;789.42;;;29.20;1.00;;;;;;4883642;29;20203;-91
2022/06/17 11:45:31;;;;;;;870.53;784.88;;;29.20;1.00;;;;;;4883919;29;20242;-89
2022/06/17 11:48:02;;;;;;;864.67;778.97;;;29.20;1.00;;;;;;4884082;29;20278;-90
2022/06/17 11:50:32;;;;;;;871.67;785.75;;;29.00;1.00;;;;;;4887460;29;20216;-88
2022/06/17 11:53:13;;;;;;;870.30;784.45;;;28.80;1.00;;;;;;4881777;29;20263;-93
2022/06/17 11:55:51;;;;;;;865.65;779.95;;;28.80;1.00;;;;;;4884185;29;20290;-89
2022/06/17 11:58:20;;;;;;;851.70;766.63;;;28.70;1.00;;;;;;4881254;29;20216;-90
2022/06/17 12:00:51;;;;;;;842.45;757.78;;;28.70;1.00;;;;;;4881228;29;20286;-89
2022/06/17 12:03:21;;;;;;;857.90;772.17;;;28.70;1.00;;;;;;4882467;29;20223;-91
2022/06/17 12:05:59;;;;;;;848.75;763.63;;;28.70;1.00;;;;;;4881030;29;20199;-88
2022/06/17 12:08:34;;;;;;;851.63;766.08;;;28.70;1.00;;;;;;4880945;29;20191;-88
2022/06/17 12:11:03;;;;;;;;;;;28.60;1.00;;;;;;4881190;29;20128;-88
2022/06/17 12:13:34;;;;;;;;;;;28.40;1.00;;;;;;4883591;29;19924;-88
2022/06/17 12:16:09;;;;;;;;;;;28.40;1.00;;;;;;4882358;29;19927;-93
2022/06/17 12:18:37;;;;;;;;;;;28.50;1.00;;;;;;4882445;29;19928;-94
2022/06/17 12:21:14;;;;;;;;;;;28.40;1.00;;;;;;4881787;29;19923;-90
2022/06/17 12:23:45;;;;;;;;;;;28.30;1.00;;;;;;4881135;29;19974;-91
2022/06/17 12:26:15;;;;;;;;;;;28.30;1.00;;;;;;4881944;29;19928;-94
2022/06/17 12:28:47;;;;;;;;;;;28.30;1.00;;;;;;4880286;29;19979;-90
2022/06/17 12:31:28;;;;;;;;;;;28.30;1.00;;;;;;4883605;29;20014;-91
2022/06/17 12:34:02;;;;;;;;;;;28.30;1.00;;;;;;4883373;29;20014;-91
2022/06/17 12:36:31;;;;;;;;;;;28.30;1.00;;;;;;4881825;29;19973;-92
2022/06/17 12:39:05;;;;;;;836.05;750.97;;;28.30;1.00;;;;;;4884640;29;20196;-92
2022/06/17 12:41:42;;;;;;;832.53;744.67;;;28.20;1.00;;;;;;4888576;29;20254;-93
2022/06/17 12:44:24;;;;;;;825.53;740.85;;;28.20;1.00;;;;;;4879991;29;20234;-89
2022/06/17 12:47:00;;;;;;;850.78;765.38;;;28.20;1.00;;;;;;4896377;29;20213;-93
2022/06/17 12:55:21;;;;;;;831.70;747.28;;;28.30;1.00;;;;;;4891465;29;20233;-89
2022/06/17 12:57:58;;;;;;;832.72;748.08;;;28.30;1.00;;;;;;4878407;29;20190;-89
2022/06/17 13:00:35;;;;;;;836.25;751.33;;;28.30;1.00;;;;;;4891312;29;20199;-88
2022/06/17 13:03:27;;;;;;;830.78;746.00;;;28.30;1.00;;;;;;4889419;29;20271;-86
2022/06/17 13:05:58;;;;;;;844.95;759.70;;;28.30;1.00;;;;;;4888986;29;20207;-87
2022/06/17 13:08:31;;;;;;;833.58;748.40;;;28.20;1.00;;;;;;4888199;29;20197;-88
2022/06/17 13:11:05;;;;;;;839.97;754.72;;;28.20;1.00;;;;;;4879688;29;20286;-88
2022/06/17 13:13:43;;;;;;;824.33;739.85;;;28.10;1.00;;;;;;4879184;29;20194;-87
2022/06/17 13:16:16;;;;;;;835.60;750.75;;;28.10;1.00;;;;;;4879715;29;20242;-88
2022/06/17 13:18:49;;;;;;;817.75;733.28;;;28.20;1.00;;;;;;4880042;29;20235;-87
2022/06/17 13:21:23;;;;;;;819.67;735.30;;;28.20;1.00;;;;;;4881948;29;20203;-87
2022/06/17 13:23:57;;;;;;;829.72;744.90;;;28.20;1.00;;;;;;4882402;29;20259;-88
2022/06/17 13:26:28;;;;;;;824.47;740.00;;;28.20;1.00;;;;;;4881848;29;20234;-89
2022/06/17 13:29:03;;;;;;;830.53;746.00;;;28.20;1.00;;;;;;4881808;29;20280;-89
2022/06/17 13:31:37;;;;;;;837.13;752.35;;;28.30;1.00;;;;;;4879461;29;20298;-87
2022/06/17 13:34:11;;;;;;;837.58;752.63;;;28.30;1.00;;;;;;4893764;29;20223;-87